Time;durP1;ratioP1;P1;durP2;ratioP2;P2;SDS_P1;SDS_P2;PMS_P1;PMS_P2;Temp;Humidity;BMP_temperature;BMP_pressure;BME280_temperature;BME280_humidity;BME280_pressure;Samples;Min_cycle;Max_cycle;Signal;HPM_P1;HPM_P2
2021/12/07 00:01:07;;;;;;;33.17;22.17;;;;;;;;;;5045238;28;20639;-78
2021/12/07 00:03:34;;;;;;;30.67;22.02;;;;;;;;;;5045227;28;20094;-79
2021/12/07 00:06:01;;;;;;;34.78;23.70;;;;;;;;;;5029542;28;20049;-79
2021/12/07 00:08:30;;;;;;;35.45;22.20;;;;;;;;;;5046099;28;20767;-81
2021/12/07 00:10:57;;;;;;;35.80;23.17;;;;;;;;;;5046007;28;20037;-79
2021/12/07 00:13:28;;;;;;;36.30;23.67;;;;;;;;;;5045979;28;20334;-79
2021/12/07 00:15:54;;;;;;;36.08;24.30;;;;;;;;;;5044068;28;20100;-79
2021/12/07 00:18:20;;;;;;;36.00;23.95;;;;;;;;;;5032411;28;20037;-82
2021/12/07 00:20:46;;;;;;;36.10;24.95;;;;;;;;;;5035490;28;20041;-83
2021/12/07 00:23:12;;;;;;;35.65;25.60;;;;;;;;;;5037542;28;20048;-81
2021/12/07 00:25:39;;;;;;;36.72;24.30;;;;;;;;;;5041652;28;20435;-80
2021/12/07 00:28:05;;;;;;;40.67;27.98;;;;;;;;;;5045825;28;20047;-80
2021/12/07 00:30:33;;;;;;;40.17;25.35;;;;;;;;;;5046085;28;20048;-80
2021/12/07 00:35:42;;;;;;;39.28;24.50;;;;;;;;;;5044900;28;20045;-79
2021/12/07 00:38:13;;;;;;;37.53;25.85;;;;;;;;;;5015474;28;20037;-85
2021/12/07 00:40:40;;;;;;;44.63;28.50;;;;;;;;;;5045054;28;20432;-79
2021/12/07 00:43:06;;;;;;;43.83;27.52;;;;;;;;;;5043203;28;20098;-79
2021/12/07 00:45:35;;;;;;;45.13;29.13;;;;;;;;;;5045878;28;20088;-84
2021/12/07 00:48:01;;;;;;;41.13;26.70;;;;;;;;;;5029413;28;20120;-85
2021/12/07 00:50:28;;;;;;;39.17;26.05;;;;;;;;;;5051452;28;20048;-84
2021/12/07 00:52:55;;;;;;;38.72;26.30;;;;;;;;;;5056395;28;20123;-80
2021/12/07 00:55:24;;;;;;;48.85;30.65;;;;;;;;;;5057203;28;20033;-80
2021/12/07 00:57:53;;;;;;;42.58;28.67;;;;;;;;;;5045135;28;20048;-82
2021/12/07 01:00:19;;;;;;;43.47;27.05;;;;;;;;;;5043637;28;21190;-79
2021/12/07 01:02:46;;;;;;;39.47;25.90;;;;;;;;;;5044364;28;20044;-78
2021/12/07 01:05:18;;;;;;;39.88;27.13;;;;;;;;;;5039876;28;20072;-79
2021/12/07 01:26:44;;;;;;;48.47;28.52;;;;;;;;;;5043724;28;20527;-79
2021/12/07 01:29:10;;;;;;;49.05;28.52;;;;;;;;;;5044919;28;20390;-78
2021/12/07 01:31:50;;;;;;;43.28;29.60;;;;;;;;;;5028812;28;20044;-78
2021/12/07 01:48:08;;;;;;;47.47;26.83;;;;;;;;;;5047268;28;20037;-79
2021/12/07 01:51:00;;;;;;;47.83;28.80;;;;;;;;;;5048299;28;20274;-78
2021/12/07 02:01:40;;;;;;;;;;;;;;;;;;5049149;28;20870;-79
2021/12/07 02:04:06;;;;;;;50.17;27.35;;;;;;;;;;5048730;28;19920;-78
2021/12/07 02:06:32;;;;;;;51.20;27.65;;;;;;;;;;5045890;28;20045;-79
2021/12/07 02:08:58;;;;;;;47.08;26.55;;;;;;;;;;5047694;28;20098;-79
2021/12/07 02:11:24;;;;;;;50.08;27.65;;;;;;;;;;5048374;28;20122;-79
2021/12/07 02:16:25;;;;;;;56.10;30.45;;;;;;;;;;5048514;28;20076;-78
2021/12/07 02:18:51;;;;;;;54.13;28.33;;;;;;;;;;5047307;28;20046;-79
2021/12/07 02:21:23;;;;;;;49.05;27.60;;;;;;;;;;5049323;28;20041;-79
2021/12/07 02:23:49;;;;;;;51.80;27.13;;;;;;;;;;5047020;28;20107;-78
2021/12/07 02:26:15;;;;;;;53.67;29.25;;;;;;;;;;5046542;28;20045;-78
2021/12/07 02:28:42;;;;;;;55.72;28.95;;;;;;;;;;5047515;28;20500;-78
2021/12/07 02:31:09;;;;;;;56.55;29.67;;;;;;;;;;5031357;28;20512;-79
2021/12/07 02:33:35;;;;;;;49.83;27.73;;;;;;;;;;5049410;28;20066;-79
2021/12/07 02:36:01;;;;;;;50.72;27.67;;;;;;;;;;5048604;28;20053;-79
2021/12/07 02:38:28;;;;;;;57.33;27.98;;;;;;;;;;5047023;28;20128;-80
2021/12/07 02:40:54;;;;;;;55.25;27.55;;;;;;;;;;5046048;28;20118;-79
2021/12/07 02:43:20;;;;;;;47.92;27.05;;;;;;;;;;5047606;28;20044;-79
2021/12/07 02:45:46;;;;;;;52.60;29.45;;;;;;;;;;5047604;28;20091;-80
2021/12/07 02:48:13;;;;;;;55.80;29.20;;;;;;;;;;5047055;28;20120;-80
2021/12/07 02:50:39;;;;;;;54.08;28.33;;;;;;;;;;5030557;28;20435;-79
2021/12/07 02:53:05;;;;;;;46.70;26.80;;;;;;;;;;5046780;28;20484;-81
2021/12/07 02:55:32;;;;;;;42.92;23.30;;;;;;;;;;5048043;28;20090;-82
2021/12/07 02:57:58;;;;;;;47.78;26.33;;;;;;;;;;5046686;28;20146;-83
2021/12/07 03:00:32;;;;;;;48.60;27.77;;;;;;;;;;5030081;28;20037;-79
2021/12/07 03:03:05;;;;;;;45.88;24.25;;;;;;;;;;5046824;28;20088;-79
2021/12/07 03:05:44;;;;;;;47.40;25.77;;;;;;;;;;5047992;28;20947;-79
2021/12/07 03:27:51;;;;;;;37.33;24.02;;;;;;;;;;5045759;28;20080;-79
2021/12/07 03:30:17;;;;;;;26.83;15.43;;;;;;;;;;5030044;28;20045;-80
2021/12/07 03:32:43;;;;;;;32.70;20.63;;;;;;;;;;5044926;28;20073;-79
2021/12/07 03:35:09;;;;;;;32.22;20.25;;;;;;;;;;5045363;28;20574;-79
2021/12/07 03:37:35;;;;;;;34.05;19.98;;;;;;;;;;5029226;28;20041;-79
2021/12/07 03:40:01;;;;;;;32.85;20.05;;;;;;;;;;5046971;28;20045;-81
2021/12/07 03:42:27;;;;;;;34.72;20.60;;;;;;;;;;5049366;28;20090;-84
2021/12/07 03:44:53;;;;;;;28.30;17.67;;;;;;;;;;5046985;28;20102;-85
2021/12/07 03:47:19;;;;;;;33.20;21.67;;;;;;;;;;5046143;28;20049;-80
2021/12/07 03:49:45;;;;;;;35.15;20.95;;;;;;;;;;5029751;28;20638;-84
2021/12/07 03:52:11;;;;;;;33.78;21.50;;;;;;;;;;5026915;28;20497;-83
2021/12/07 03:54:37;;;;;;;34.17;21.23;;;;;;;;;;5045904;28;20493;-81
2021/12/07 03:57:05;;;;;;;30.83;18.77;;;;;;;;;;5046554;28;20377;-82
2021/12/07 03:59:31;;;;;;;38.92;21.95;;;;;;;;;;5047285;28;20446;-80
2021/12/07 04:01:57;;;;;;;36.55;21.52;;;;;;;;;;5045819;28;20973;-81
2021/12/07 04:04:23;;;;;;;30.08;18.90;;;;;;;;;;5045831;28;20139;-79
2021/12/07 04:06:49;;;;;;;34.58;21.15;;;;;;;;;;5045161;28;20090;-80
2021/12/07 04:09:16;;;;;;;36.35;20.88;;;;;;;;;;5059241;28;20056;-79
2021/12/07 04:11:42;;;;;;;36.40;22.20;;;;;;;;;;5044631;28;20051;-81
2021/12/07 04:14:08;;;;;;;32.58;21.10;;;;;;;;;;5013132;28;20043;-79
2021/12/07 04:16:34;;;;;;;31.55;18.33;;;;;;;;;;5028673;28;20045;-79
2021/12/07 04:19:01;;;;;;;32.72;19.25;;;;;;;;;;5045227;28;20614;-82
2021/12/07 04:21:27;;;;;;;37.25;21.73;;;;;;;;;;5045493;28;20055;-80
2021/12/07 04:23:53;;;;;;;34.92;21.50;;;;;;;;;;5044730;28;20049;-79
2021/12/07 04:26:19;;;;;;;30.98;20.10;;;;;;;;;;5044968;28;20114;-79
2021/12/07 04:28:45;;;;;;;29.92;18.75;;;;;;;;;;5046080;28;20070;-79
2021/12/07 04:31:12;;;;;;;28.85;18.52;;;;;;;;;;5045060;28;20424;-80
2021/12/07 04:33:38;;;;;;;32.97;20.35;;;;;;;;;;5044493;28;20041;-79
2021/12/07 04:36:05;;;;;;;36.10;20.77;;;;;;;;;;5044736;28;20037;-78
2021/12/07 04:38:32;;;;;;;38.28;23.13;;;;;;;;;;5044659;28;20041;-78
2021/12/07 04:40:59;;;;;;;36.80;23.27;;;;;;;;;;5028522;28;20072;-79
2021/12/07 04:43:25;;;;;;;37.97;22.42;;;;;;;;;;5045136;28;20080;-79
2021/12/07 04:46:01;;;;;;;31.95;19.13;;;;;;;;;;5043873;28;20102;-78
2021/12/07 04:59:11;;;;;;;38.97;21.10;;;;;;;;;;5042564;28;20056;-80
2021/12/07 05:01:37;;;;;;;40.25;24.27;;;;;;;;;;5040246;28;20090;-80
2021/12/07 05:04:10;;;;;;;35.22;21.90;;;;;;;;;;5038682;28;20118;-81
2021/12/07 05:06:42;;;;;;;35.97;21.52;;;;;;;;;;5041442;28;20048;-80
2021/12/07 05:09:30;;;;;;;35.88;22.75;;;;;;;;;;5042539;28;20056;-82
2021/12/07 05:14:34;;;;;;;41.85;24.02;;;;;;;;;;5043328;28;20048;-80
2021/12/07 05:17:18;;;;;;;37.60;22.13;;;;;;;;;;5041654;28;20060;-79
2021/12/07 05:38:46;;;;;;;39.08;21.60;;;;;;;;;;5042744;28;20557;-79
2021/12/07 05:41:12;;;;;;;39.88;22.48;;;;;;;;;;5042869;28;20456;-79
2021/12/07 05:43:38;;;;;;;37.83;21.83;;;;;;;;;;5041635;28;20080;-79
2021/12/07 05:46:04;;;;;;;38.50;22.85;;;;;;;;;;5041234;28;20044;-80
2021/12/07 05:48:30;;;;;;;41.05;22.73;;;;;;;;;;5042399;28;20052;-79
2021/12/07 05:50:56;;;;;;;41.75;22.55;;;;;;;;;;5041681;28;20061;-79
2021/12/07 05:53:23;;;;;;;43.17;24.38;;;;;;;;;;5041432;28;20502;-79
2021/12/07 05:55:49;;;;;;;38.75;22.33;;;;;;;;;;5042006;28;20164;-81
2021/12/07 05:58:15;;;;;;;39.90;22.75;;;;;;;;;;5041293;28;20496;-81
2021/12/07 06:00:44;;;;;;;39.53;23.92;;;;;;;;;;5051629;28;20095;-81
2021/12/07 06:03:11;;;;;;;37.85;22.63;;;;;;;;;;5024984;28;20044;-81
2021/12/07 06:05:38;;;;;;;43.10;21.77;;;;;;;;;;5042274;28;20505;-82
2021/12/07 06:08:05;;;;;;;37.08;22.33;;;;;;;;;;5040562;28;20041;-82
2021/12/07 06:10:31;;;;;;;35.80;22.60;;;;;;;;;;5041238;28;20037;-82
2021/12/07 06:12:57;;;;;;;37.15;20.52;;;;;;;;;;5024086;28;20045;-82
2021/12/07 06:15:31;;;;;;;38.80;23.70;;;;;;;;;;5045218;28;20049;-81
2021/12/07 06:17:57;;;;;;;35.45;19.83;;;;;;;;;;5048546;28;20052;-82
2021/12/07 06:20:23;;;;;;;34.33;20.00;;;;;;;;;;5046461;28;20163;-82
2021/12/07 06:22:50;;;;;;;37.72;21.58;;;;;;;;;;5046168;28;22052;-83
2021/12/07 06:25:16;;;;;;;32.45;19.23;;;;;;;;;;5047637;28;20056;-81
2021/12/07 06:27:42;;;;;;;34.35;19.52;;;;;;;;;;5046738;28;20037;-82
2021/12/07 06:30:09;;;;;;;37.25;20.45;;;;;;;;;;5046064;28;20049;-81
2021/12/07 06:32:35;;;;;;;36.50;18.83;;;;;;;;;;5046286;28;20041;-82
2021/12/07 06:35:01;;;;;;;30.70;16.85;;;;;;;;;;5063108;28;20187;-82
2021/12/07 06:37:27;;;;;;;30.42;16.75;;;;;;;;;;5046352;28;20366;-82
2021/12/07 06:39:53;;;;;;;26.23;16.15;;;;;;;;;;5045971;28;20048;-82
2021/12/07 06:42:19;;;;;;;25.20;14.35;;;;;;;;;;5028023;28;20050;-82
2021/12/07 06:44:46;;;;;;;24.85;15.68;;;;;;;;;;5047422;28;20080;-82
2021/12/07 06:47:12;;;;;;;28.23;15.57;;;;;;;;;;5044802;28;20055;-82
2021/12/07 06:49:38;;;;;;;30.02;15.80;;;;;;;;;;5047158;28;20190;-82
2021/12/07 06:52:04;;;;;;;29.42;15.50;;;;;;;;;;5045991;28;20052;-81
2021/12/07 06:54:30;;;;;;;26.45;15.18;;;;;;;;;;5048082;28;20132;-83
2021/12/07 06:56:56;;;;;;;26.88;15.38;;;;;;;;;;5047377;28;20077;-84
2021/12/07 06:59:23;;;;;;;29.13;15.40;;;;;;;;;;5048396;28;20052;-83
2021/12/07 07:01:49;;;;;;;27.33;15.90;;;;;;;;;;5031711;28;20523;-82
2021/12/07 07:04:18;;;;;;;32.25;16.00;;;;;;;;;;5046965;28;20064;-82
2021/12/07 07:06:44;;;;;;;24.55;14.38;;;;;;;;;;5048328;28;20134;-82
2021/12/07 07:09:11;;;;;;;22.48;13.55;;;;;;;;;;5049540;28;20059;-82
2021/12/07 07:11:37;;;;;;;26.98;13.85;;;;;;;;;;5045671;28;20056;-82
2021/12/07 07:14:03;;;;;;;23.15;12.73;;;;;;;;;;5051570;28;20068;-82
2021/12/07 07:16:30;;;;;;;23.02;13.75;;;;;;;;;;5047877;28;20041;-82
2021/12/07 07:18:57;;;;;;;29.63;13.25;;;;;;;;;;5047901;28;20044;-85
2021/12/07 07:21:23;;;;;;;23.92;13.18;;;;;;;;;;5049640;28;20037;-81
2021/12/07 07:23:49;;;;;;;24.70;12.38;;;;;;;;;;5057711;28;20041;-81
2021/12/07 07:26:16;;;;;;;26.48;12.50;;;;;;;;;;5043132;28;20477;-82
2021/12/07 07:28:42;;;;;;;23.30;12.60;;;;;;;;;;5044672;28;20116;-82
2021/12/07 07:31:09;;;;;;;25.33;12.90;;;;;;;;;;5042788;28;20049;-81
2021/12/07 07:33:35;;;;;;;23.95;12.73;;;;;;;;;;5043348;28;20037;-81
2021/12/07 07:36:02;;;;;;;20.35;12.00;;;;;;;;;;5044265;28;20049;-82
2021/12/07 07:38:28;;;;;;;20.85;12.23;;;;;;;;;;5044799;28;20095;-81
2021/12/07 07:40:54;;;;;;;22.27;10.90;;;;;;;;;;5044303;28;20486;-81
2021/12/07 07:43:20;;;;;;;23.45;11.02;;;;;;;;;;5042961;28;20143;-81
2021/12/07 07:45:49;;;;;;;23.98;11.68;;;;;;;;;;5044208;28;20048;-81
2021/12/07 07:48:16;;;;;;;26.27;12.43;;;;;;;;;;5043627;28;20072;-81
2021/12/07 07:50:42;;;;;;;20.80;12.18;;;;;;;;;;5027972;28;20044;-81
2021/12/07 07:53:08;;;;;;;25.00;11.95;;;;;;;;;;5042268;28;20511;-81
2021/12/07 07:55:37;;;;;;;17.40;10.85;;;;;;;;;;5042946;28;20100;-81
2021/12/07 07:58:04;;;;;;;24.13;10.85;;;;;;;;;;5044556;28;20053;-82
2021/12/07 08:00:30;;;;;;;20.30;10.32;;;;;;;;;;5041318;28;20037;-81
2021/12/07 08:02:56;;;;;;;23.65;10.82;;;;;;;;;;5043765;28;20037;-81
2021/12/07 08:05:22;;;;;;;22.92;9.82;;;;;;;;;;5025977;28;20041;-81
2021/12/07 08:07:48;;;;;;;15.07;9.27;;;;;;;;;;5043180;28;20159;-81
2021/12/07 08:10:20;;;;;;;24.83;11.07;;;;;;;;;;5043589;28;20382;-81
2021/12/07 08:12:46;;;;;;;18.00;10.18;;;;;;;;;;5042446;28;20108;-81
2021/12/07 08:15:13;;;;;;;18.83;10.15;;;;;;;;;;5043764;28;20123;-81
2021/12/07 08:17:39;;;;;;;20.20;9.93;;;;;;;;;;5046553;28;20045;-80
2021/12/07 08:20:05;;;;;;;23.55;9.45;;;;;;;;;;5045211;28;20048;-80
2021/12/07 08:22:31;;;;;;;20.75;9.13;;;;;;;;;;5042574;28;20039;-83
2021/12/07 08:24:57;;;;;;;21.95;10.05;;;;;;;;;;5042060;28;20045;-83
2021/12/07 08:27:24;;;;;;;20.08;9.93;;;;;;;;;;5042495;28;20781;-80
2021/12/07 08:29:50;;;;;;;25.52;9.82;;;;;;;;;;5042168;28;20091;-80
2021/12/07 08:32:16;;;;;;;16.25;9.82;;;;;;;;;;5044507;28;20068;-81
2021/12/07 08:34:42;;;;;;;16.13;9.93;;;;;;;;;;5037646;28;20127;-81
2021/12/07 08:37:08;;;;;;;19.50;9.88;;;;;;;;;;5043999;28;20045;-81
2021/12/07 08:39:34;;;;;;;19.10;9.20;;;;;;;;;;5037117;28;20037;-80
2021/12/07 08:42:02;;;;;;;22.65;9.80;;;;;;;;;;5043965;28;20102;-81
2021/12/07 08:44:28;;;;;;;20.55;8.90;;;;;;;;;;5023771;28;20044;-81
2021/12/07 08:46:54;;;;;;;15.85;6.85;;;;;;;;;;5042722;28;20413;-80
2021/12/07 08:49:21;;;;;;;20.30;9.52;;;;;;;;;;5026623;28;20049;-81
2021/12/07 08:51:48;;;;;;;16.10;8.07;;;;;;;;;;5041425;28;20885;-81
2021/12/07 08:59:54;;;;;;;22.40;10.63;;;;;;;;;;5043386;28;20048;-81
2021/12/07 09:02:22;;;;;;;21.40;7.70;;;;;;;;;;5044459;28;20068;-82
2021/12/07 09:04:49;;;;;;;24.17;11.10;;;;;;;;;;5044472;28;20114;-81
2021/12/07 09:07:15;;;;;;;21.75;10.20;;;;;;;;;;5045061;28;20040;-82
2021/12/07 09:09:45;;;;;;;25.50;9.18;;;;;;;;;;5045012;28;20041;-82
2021/12/07 09:12:12;;;;;;;22.80;10.23;;;;;;;;;;5044410;28;20416;-82
2021/12/07 09:14:38;;;;;;;20.80;9.02;;;;;;;;;;5045092;28;20438;-82
2021/12/07 09:17:05;;;;;;;25.40;11.00;;;;;;;;;;5043630;28;20091;-82
2021/12/07 09:19:32;;;;;;;23.17;9.93;;;;;;;;;;5045085;28;20041;-82
2021/12/07 09:21:59;;;;;;;15.13;8.93;;;;;;;;;;5044007;28;20107;-82
2021/12/07 09:24:27;;;;;;;23.98;9.90;;;;;;;;;;5045167;28;20492;-82
2021/12/07 09:26:54;;;;;;;18.77;9.25;;;;;;;;;;5052826;28;20043;-83
2021/12/07 09:29:20;;;;;;;26.55;9.65;;;;;;;;;;5034206;28;20056;-83
2021/12/07 09:31:46;;;;;;;20.55;10.02;;;;;;;;;;5035709;28;20049;-82
2021/12/07 09:34:13;;;;;;;22.00;9.07;;;;;;;;;;5028889;28;20606;-83
2021/12/07 09:36:40;;;;;;;19.52;9.13;;;;;;;;;;5041155;28;20385;-82
2021/12/07 09:39:07;;;;;;;28.13;9.07;;;;;;;;;;5042628;28;20052;-83
2021/12/07 09:41:33;;;;;;;19.33;8.02;;;;;;;;;;5052996;28;20172;-83
2021/12/07 09:43:59;;;;;;;22.00;9.52;;;;;;;;;;5042969;28;20068;-84
2021/12/07 09:46:25;;;;;;;22.02;9.57;;;;;;;;;;5044938;28;20083;-83
2021/12/07 09:48:52;;;;;;;19.92;9.23;;;;;;;;;;5045933;28;20063;-84
2021/12/07 09:51:19;;;;;;;16.65;8.65;;;;;;;;;;5055921;28;20073;-83
2021/12/07 09:53:46;;;;;;;19.90;8.40;;;;;;;;;;5047537;28;20492;-84
2021/12/07 09:56:12;;;;;;;20.50;8.55;;;;;;;;;;5055950;28;20060;-83
2021/12/07 09:58:39;;;;;;;22.98;6.95;;;;;;;;;;5067728;28;20076;-83
2021/12/07 10:01:06;;;;;;;20.77;8.00;;;;;;;;;;5067864;28;20037;-82
2021/12/07 10:03:33;;;;;;;25.35;7.80;;;;;;;;;;5063572;28;20044;-83
2021/12/07 10:05:59;;;;;;;15.57;6.95;;;;;;;;;;5051659;28;20459;-83
2021/12/07 10:08:25;;;;;;;20.02;7.43;;;;;;;;;;5051379;28;20553;-84
2021/12/07 10:10:54;;;;;;;18.20;6.97;;;;;;;;;;5047830;28;20087;-83
2021/12/07 10:13:23;;;;;;;14.45;5.97;;;;;;;;;;5048059;28;20049;-83
2021/12/07 10:15:50;;;;;;;16.65;6.50;;;;;;;;;;5047167;28;20087;-84
2021/12/07 10:18:43;;;;;;;15.10;7.07;;;;;;;;;;5048780;28;20110;-83
2021/12/07 10:21:10;;;;;;;16.13;6.35;;;;;;;;;;5048167;28;20037;-84
2021/12/07 10:23:41;;;;;;;11.85;5.63;;;;;;;;;;5046550;28;20152;-83
2021/12/07 10:26:19;;;;;;;17.13;6.65;;;;;;;;;;5045000;28;20045;-83
2021/12/07 10:28:47;;;;;;;13.48;6.95;;;;;;;;;;5047232;28;20447;-83
2021/12/07 10:31:16;;;;;;;16.52;6.75;;;;;;;;;;5047744;28;20041;-83
2021/12/07 10:33:48;;;;;;;9.45;4.75;;;;;;;;;;5043870;28;20047;-83
2021/12/07 10:36:19;;;;;;;12.68;5.82;;;;;;;;;;5046722;28;20543;-83
2021/12/07 10:38:57;;;;;;;19.27;6.40;;;;;;;;;;5047974;28;20044;-83
2021/12/07 10:41:25;;;;;;;19.67;6.55;;;;;;;;;;5044804;28;20053;-83
2021/12/07 10:43:53;;;;;;;16.52;7.05;;;;;;;;;;5045760;28;20116;-83
2021/12/07 10:46:38;;;;;;;13.63;6.97;;;;;;;;;;5043912;28;20037;-84
2021/12/07 10:49:12;;;;;;;13.07;6.55;;;;;;;;;;5045866;28;20044;-83
2021/12/07 10:51:38;;;;;;;;;;;;;;;;;;5047606;28;20044;-83
2021/12/07 10:54:05;;;;;;;11.77;5.55;;;;;;;;;;5047095;28;19925;-83
2021/12/07 10:56:33;;;;;;;13.95;6.05;;;;;;;;;;5048145;28;20139;-83
2021/12/07 10:59:04;;;;;;;14.05;6.43;;;;;;;;;;5028755;28;20142;-82
2021/12/07 11:01:31;;;;;;;14.15;6.53;;;;;;;;;;5043462;28;20052;-84
2021/12/07 11:04:16;;;;;;;15.73;6.20;;;;;;;;;;5038440;28;20069;-83
2021/12/07 11:06:42;;;;;;;;;;;;;;;;;;5040433;28;20041;-83
2021/12/07 11:09:08;;;;;;;11.02;3.90;;;;;;;;;;5035695;28;19921;-83
2021/12/07 11:11:34;;;;;;;11.07;5.57;;;;;;;;;;5043350;28;20084;-83
2021/12/07 11:14:04;;;;;;;9.00;4.18;;;;;;;;;;5046886;28;20052;-83
2021/12/07 11:16:30;;;;;;;14.02;5.18;;;;;;;;;;5047062;28;20098;-84
2021/12/07 11:18:56;;;;;;;14.10;5.00;;;;;;;;;;5048159;28;20045;-83
2021/12/07 11:21:23;;;;;;;8.48;4.90;;;;;;;;;;5046959;28;20048;-83
2021/12/07 11:23:55;;;;;;;11.32;5.22;;;;;;;;;;5024896;28;20067;-83
2021/12/07 11:31:34;;;;;;;13.07;5.57;;;;;;;;;;5041478;28;20666;-83
2021/12/07 11:34:09;;;;;;;11.02;4.80;;;;;;;;;;5043540;28;20743;-83
2021/12/07 11:36:51;;;;;;;19.33;5.30;;;;;;;;;;5045543;28;20064;-83
2021/12/07 11:39:26;;;;;;;14.43;4.70;;;;;;;;;;5029443;28;20093;-83
2021/12/07 11:41:58;;;;;;;13.52;4.43;;;;;;;;;;5044882;28;20084;-83
2021/12/07 11:44:24;;;;;;;11.13;4.35;;;;;;;;;;5047425;28;20045;-83
2021/12/07 11:46:51;;;;;;;11.50;3.92;;;;;;;;;;5046216;28;20073;-83
2021/12/07 11:49:19;;;;;;;25.40;5.07;;;;;;;;;;5044729;28;20041;-83
2021/12/07 11:51:47;;;;;;;10.70;4.43;;;;;;;;;;5046491;28;20534;-83
2021/12/07 11:54:14;;;;;;;10.95;4.60;;;;;;;;;;5046827;28;20079;-83
2021/12/07 11:56:40;;;;;;;11.30;3.58;;;;;;;;;;5045540;28;20044;-83
2021/12/07 11:59:07;;;;;;;10.88;3.88;;;;;;;;;;5043635;28;20056;-83
2021/12/07 12:01:33;;;;;;;12.65;4.22;;;;;;;;;;5046807;28;20382;-83
2021/12/07 12:04:00;;;;;;;15.65;4.45;;;;;;;;;;5046019;28;20033;-84
2021/12/07 12:06:26;;;;;;;14.38;4.13;;;;;;;;;;5046550;28;20092;-83
2021/12/07 12:08:53;;;;;;;20.08;4.45;;;;;;;;;;5045056;28;20446;-83
2021/12/07 12:11:28;;;;;;;22.83;5.47;;;;;;;;;;5045105;28;20040;-84
2021/12/07 12:14:13;;;;;;;15.85;4.28;;;;;;;;;;5027283;28;20079;-83
2021/12/07 12:16:58;;;;;;;14.60;4.10;;;;;;;;;;5044157;28;20048;-83
2021/12/07 12:19:24;;;;;;;14.02;3.88;;;;;;;;;;5046180;28;20095;-83
2021/12/07 12:22:05;;;;;;;15.00;5.13;;;;;;;;;;5054310;28;20492;-83
2021/12/07 12:24:47;;;;;;;10.65;4.00;;;;;;;;;;5044362;28;20132;-83
2021/12/07 12:27:16;;;;;;;12.48;4.40;;;;;;;;;;5046768;28;20114;-84
2021/12/07 12:29:49;;;;;;;13.77;3.90;;;;;;;;;;5045144;28;20072;-83
2021/12/07 12:32:26;;;;;;;12.55;3.78;;;;;;;;;;5045589;28;20101;-83
2021/12/07 12:34:58;;;;;;;15.05;4.00;;;;;;;;;;5044892;28;20113;-84
2021/12/07 12:37:27;;;;;;;15.93;3.70;;;;;;;;;;5045379;28;20044;-83
2021/12/07 12:40:14;;;;;;;17.60;4.13;;;;;;;;;;5049566;28;20049;-83
2021/12/07 12:42:43;;;;;;;18.90;4.32;;;;;;;;;;5043297;28;20080;-82
2021/12/07 12:45:27;;;;;;;10.25;4.28;;;;;;;;;;5046586;28;20045;-83
2021/12/07 12:47:55;;;;;;;10.88;4.00;;;;;;;;;;5046088;28;20049;-82
2021/12/07 12:50:25;;;;;;;16.63;4.10;;;;;;;;;;5047373;28;20102;-83
2021/12/07 12:52:57;;;;;;;16.60;4.68;;;;;;;;;;5033830;28;20164;-83
2021/12/07 12:55:27;;;;;;;15.25;4.57;;;;;;;;;;5046427;28;20497;-82
2021/12/07 12:57:53;;;;;;;14.57;4.43;;;;;;;;;;5043859;28;20049;-83
2021/12/07 13:00:20;;;;;;;11.93;4.03;;;;;;;;;;5041275;28;20041;-83
2021/12/07 13:02:55;;;;;;;16.92;3.70;;;;;;;;;;5043914;28;20477;-83
2021/12/07 13:05:33;;;;;;;15.48;4.20;;;;;;;;;;5040173;28;21804;-83
2021/12/07 13:08:16;;;;;;;14.25;4.45;;;;;;;;;;5042955;28;20059;-82
2021/12/07 13:11:02;;;;;;;15.55;4.10;;;;;;;;;;5044212;28;20077;-82
2021/12/07 13:13:31;;;;;;;15.27;3.88;;;;;;;;;;5042314;28;20518;-82
2021/12/07 13:15:58;;;;;;;15.43;4.20;;;;;;;;;;5026229;28;20044;-82
2021/12/07 13:18:31;;;;;;;17.77;5.25;;;;;;;;;;5043489;28;20052;-83
2021/12/07 13:20:57;;;;;;;17.80;5.05;;;;;;;;;;5044551;28;20143;-82
2021/12/07 13:23:29;;;;;;;19.98;4.93;;;;;;;;;;5045038;28;20485;-83
2021/12/07 13:25:55;;;;;;;15.05;4.28;;;;;;;;;;5040453;28;20052;-82
2021/12/07 13:28:25;;;;;;;9.85;4.30;;;;;;;;;;5042513;28;20148;-82
2021/12/07 13:30:54;;;;;;;11.57;4.03;;;;;;;;;;5044585;28;20052;-82
2021/12/07 13:33:23;;;;;;;18.42;4.97;;;;;;;;;;5043578;28;20669;-83
2021/12/07 13:35:51;;;;;;;12.63;4.25;;;;;;;;;;5042708;28;20029;-83
2021/12/07 13:38:23;;;;;;;18.98;4.85;;;;;;;;;;5042761;28;20551;-85
2021/12/07 13:40:50;;;;;;;11.60;4.80;;;;;;;;;;5044044;28;20447;-83
2021/12/07 13:43:36;;;;;;;18.15;5.63;;;;;;;;;;5023301;28;20142;-82
2021/12/07 13:46:14;;;;;;;16.13;4.80;;;;;;;;;;5045030;28;20446;-83
2021/12/07 13:48:46;;;;;;;17.05;4.90;;;;;;;;;;5027711;28;20052;-83
2021/12/07 13:51:13;;;;;;;13.55;5.30;;;;;;;;;;5045537;28;20572;-82
2021/12/07 13:53:40;;;;;;;14.65;5.03;;;;;;;;;;5045453;28;20052;-83
2021/12/07 13:56:06;;;;;;;18.95;5.35;;;;;;;;;;5044683;28;20214;-82
2021/12/07 13:58:51;;;;;;;24.55;5.80;;;;;;;;;;5042319;28;20052;-83
2021/12/07 14:01:18;;;;;;;21.65;6.05;;;;;;;;;;5015322;28;20079;-82
2021/12/07 14:03:44;;;;;;;18.77;5.70;;;;;;;;;;5045767;28;20029;-83
2021/12/07 14:06:10;;;;;;;14.45;5.25;;;;;;;;;;5043724;28;20441;-82
2021/12/07 14:08:36;;;;;;;20.10;5.95;;;;;;;;;;5042957;28;20393;-82
2021/12/07 14:11:03;;;;;;;20.05;5.78;;;;;;;;;;5043305;28;20516;-83
2021/12/07 14:13:29;;;;;;;18.20;6.13;;;;;;;;;;5042933;28;20492;-82
2021/12/07 14:15:55;;;;;;;16.00;5.88;;;;;;;;;;5045441;28;20526;-82
2021/12/07 14:18:24;;;;;;;20.20;6.35;;;;;;;;;;5042979;28;20064;-85
2021/12/07 14:20:58;;;;;;;16.83;5.60;;;;;;;;;;5010661;28;20130;-82
2021/12/07 14:23:30;;;;;;;23.25;7.10;;;;;;;;;;5043116;28;20048;-83
2021/12/07 14:25:56;;;;;;;13.93;6.03;;;;;;;;;;5045099;28;20091;-84
2021/12/07 14:28:42;;;;;;;19.95;6.50;;;;;;;;;;5044053;28;20037;-83
2021/12/07 14:31:12;;;;;;;23.73;6.60;;;;;;;;;;5042839;28;20055;-83
2021/12/07 14:33:40;;;;;;;18.20;6.88;;;;;;;;;;5044538;28;20560;-82
2021/12/07 14:36:06;;;;;;;23.63;6.78;;;;;;;;;;5043125;28;20045;-82
2021/12/07 14:38:34;;;;;;;17.95;6.65;;;;;;;;;;5046115;28;20083;-83
2021/12/07 14:41:01;;;;;;;22.25;6.75;;;;;;;;;;5046344;28;20092;-82
2021/12/07 14:43:27;;;;;;;19.23;6.78;;;;;;;;;;5047766;28;20386;-81
2021/12/07 14:45:58;;;;;;;21.13;7.13;;;;;;;;;;5047412;28;20095;-82
2021/12/07 14:48:24;;;;;;;21.08;6.78;;;;;;;;;;5048311;28;20047;-81
2021/12/07 14:50:50;;;;;;;18.65;7.90;;;;;;;;;;5048465;28;20049;-82
2021/12/07 14:53:16;;;;;;;17.38;7.47;;;;;;;;;;5047656;28;20045;-81
2021/12/07 14:55:42;;;;;;;26.98;7.97;;;;;;;;;;5046603;28;20489;-81
2021/12/07 14:58:08;;;;;;;22.38;8.63;;;;;;;;;;5046890;28;20619;-81
2021/12/07 15:00:34;;;;;;;29.45;8.65;;;;;;;;;;5045941;28;20033;-81
2021/12/07 15:03:01;;;;;;;23.67;9.20;;;;;;;;;;5047286;28;20041;-83
2021/12/07 15:05:32;;;;;;;22.67;9.38;;;;;;;;;;5042056;28;20054;-83
2021/12/07 15:07:58;;;;;;;22.95;8.73;;;;;;;;;;5027367;28;20459;-83
2021/12/07 15:10:24;;;;;;;20.80;8.55;;;;;;;;;;5023921;28;20084;-84
2021/12/07 15:12:50;;;;;;;29.52;8.65;;;;;;;;;;5026193;28;20132;-83
2021/12/07 15:15:17;;;;;;;22.77;9.70;;;;;;;;;;5040534;28;20048;-83
2021/12/07 15:17:43;;;;;;;27.42;9.73;;;;;;;;;;5040956;28;20045;-84
2021/12/07 15:20:22;;;;;;;28.15;10.82;;;;;;;;;;5040408;28;20070;-84
2021/12/07 15:22:48;;;;;;;23.27;10.07;;;;;;;;;;5040713;28;20053;-83
2021/12/07 15:25:14;;;;;;;27.98;10.57;;;;;;;;;;5041638;28;20033;-83
2021/12/07 15:27:49;;;;;;;23.92;10.45;;;;;;;;;;5040026;28;20124;-83
2021/12/07 15:30:17;;;;;;;26.80;10.35;;;;;;;;;;5040817;28;20048;-83
2021/12/07 15:32:43;;;;;;;24.02;9.80;;;;;;;;;;5041609;28;20562;-84
2021/12/07 15:35:09;;;;;;;24.42;11.55;;;;;;;;;;5039733;28;20045;-84
2021/12/07 15:37:35;;;;;;;29.75;10.68;;;;;;;;;;5041783;28;20041;-83
2021/12/07 15:40:02;;;;;;;23.75;11.23;;;;;;;;;;5042391;28;20049;-84
2021/12/07 15:42:35;;;;;;;30.15;11.10;;;;;;;;;;5042286;28;20118;-83
2021/12/07 15:45:09;;;;;;;25.63;12.15;;;;;;;;;;5038645;28;20410;-83
2021/12/07 15:47:46;;;;;;;29.08;11.52;;;;;;;;;;5037020;28;20044;-86
2021/12/07 15:50:17;;;;;;;36.20;12.93;;;;;;;;;;5045669;28;20136;-84
2021/12/07 15:52:48;;;;;;;29.23;12.02;;;;;;;;;;5038069;28;20049;-85
2021/12/07 15:55:19;;;;;;;24.73;11.68;;;;;;;;;;5026458;28;20040;-85
2021/12/07 15:57:45;;;;;;;30.48;12.95;;;;;;;;;;5027290;28;20053;-84
2021/12/07 16:00:13;;;;;;;31.80;12.80;;;;;;;;;;5044156;28;20048;-83
2021/12/07 16:02:39;;;;;;;24.00;12.55;;;;;;;;;;5027160;28;20048;-85
2021/12/07 16:05:14;;;;;;;28.80;11.13;;;;;;;;;;5045877;28;20037;-85
2021/12/07 16:07:42;;;;;;;38.75;12.13;;;;;;;;;;5044425;28;20052;-84
2021/12/07 16:10:10;;;;;;;28.48;12.30;;;;;;;;;;5043723;28;20143;-86
2021/12/07 16:12:36;;;;;;;32.33;13.05;;;;;;;;;;5024609;28;20587;-85
2021/12/07 16:15:23;;;;;;;31.98;12.63;;;;;;;;;;5042688;28;20040;-85
2021/12/07 16:18:20;;;;;;;25.63;12.77;;;;;;;;;;5043403;28;20895;-84
2021/12/07 16:20:46;;;;;;;31.70;13.80;;;;;;;;;;5029259;28;20045;-85